createdAt,value
2023-08-07T00:02:12.450Z,85445.25
2023-08-07T00:04:39.542Z,85483.19
2023-08-07T00:07:06.918Z,85466.34
2023-08-07T00:09:33.916Z,85481.69
2023-08-07T00:12:01.017Z,85478.53
2023-08-07T00:14:28.048Z,85489.00
2023-08-07T00:16:55.003Z,85481.72
2023-08-07T00:19:22.114Z,85483.56
2023-08-07T00:21:49.224Z,85476.88
2023-08-07T00:24:16.236Z,85486.75
2023-08-07T00:26:43.248Z,85488.88
2023-08-07T00:29:10.328Z,85481.53
2023-08-07T00:31:37.501Z,85450.59
2023-08-07T00:34:05.292Z,85484.84
2023-08-07T00:36:36.000Z,85452.66
2023-08-07T00:39:06.870Z,85472.28
2023-08-07T00:41:33.993Z,85495.31
2023-08-07T00:44:01.439Z,85443.47
2023-08-07T00:46:30.244Z,85502.56
2023-08-07T00:48:57.995Z,85507.69
2023-08-07T00:51:25.427Z,85501.78
2023-08-07T00:53:52.581Z,85424.91
2023-08-07T00:56:20.123Z,85479.25
2023-08-07T00:58:47.612Z,85499.56
2023-08-07T01:01:14.771Z,85482.34
2023-08-07T01:03:41.869Z,85491.53
2023-08-07T01:06:09.365Z,85483.88
2023-08-07T01:08:36.999Z,85502.44
2023-08-07T01:11:09.506Z,85514.75
2023-08-07T01:13:48.353Z,85482.25
2023-08-07T01:16:30.102Z,85525.28
2023-08-07T01:18:58.618Z,85514.63
2023-08-07T01:21:25.661Z,85518.91
2023-08-07T01:23:53.573Z,85518.22
2023-08-07T01:26:22.075Z,85490.25
2023-08-07T01:29:02.580Z,85514.63
2023-08-07T01:31:33.118Z,85517.06
2023-08-07T01:34:05.955Z,85525.75
2023-08-07T01:36:34.656Z,85518.13
2023-08-07T01:39:03.282Z,85519.84
2023-08-07T01:41:31.604Z,85520.72
2023-08-07T01:43:59.342Z,85527.56
2023-08-07T01:46:26.580Z,85476.16
2023-08-07T01:48:54.769Z,85523.97
2023-08-07T01:51:22.683Z,85482.13
2023-08-07T01:53:54.030Z,85521.34
2023-08-07T01:56:21.182Z,85521.97
2023-08-07T01:58:48.644Z,85530.13
2023-08-07T02:01:15.904Z,85506.16
2023-08-07T02:03:43.006Z,85522.03
2023-08-07T02:06:10.074Z,85533.03
2023-08-07T02:08:37.444Z,85534.50
2023-08-07T02:11:04.736Z,85534.59
2023-08-07T02:13:32.090Z,85530.97
2023-08-07T02:15:59.672Z,85508.69
2023-08-07T02:18:27.427Z,85532.50
2023-08-07T02:20:55.089Z,85546.41
2023-08-07T02:23:22.339Z,85511.78
2023-08-07T02:25:50.434Z,85501.91
2023-08-07T02:28:17.947Z,85553.06
2023-08-07T02:30:55.178Z,85519.81
2023-08-07T02:33:22.428Z,85539.41
2023-08-07T02:35:51.331Z,85560.28
2023-08-07T02:38:18.859Z,85509.44
2023-08-07T02:40:47.691Z,85550.28
2023-08-07T02:43:14.962Z,85563.66
2023-08-07T02:45:42.323Z,85522.84
2023-08-07T02:48:09.653Z,85532.69
2023-08-07T02:50:37.347Z,85575.03
2023-08-07T02:53:04.699Z,85545.09
2023-08-07T02:55:31.939Z,85557.44
2023-08-07T02:57:59.398Z,85538.19
2023-08-07T03:00:26.668Z,85530.03
2023-08-07T03:02:53.996Z,85566.59
2023-08-07T03:05:21.448Z,85564.41
2023-08-07T03:07:48.780Z,85557.19
2023-08-07T03:10:16.000Z,85575.81
2023-08-07T03:12:43.268Z,85537.22
2023-08-07T03:15:10.618Z,85574.03
2023-08-07T03:17:37.893Z,85572.75
2023-08-07T03:20:05.748Z,85567.31
2023-08-07T03:22:32.946Z,85541.28
2023-08-07T03:25:00.271Z,85534.41
2023-08-07T03:27:27.824Z,85553.38
2023-08-07T03:29:55.184Z,85554.78
2023-08-07T03:32:26.457Z,85564.88
2023-08-07T03:34:53.644Z,85568.13
2023-08-07T03:37:21.372Z,85576.28
2023-08-07T03:39:49.362Z,85564.00
2023-08-07T03:42:16.802Z,85570.63
2023-08-07T03:44:45.796Z,85572.53
2023-08-07T03:47:13.105Z,85534.31
2023-08-07T03:49:40.307Z,85568.97
2023-08-07T03:52:08.380Z,85566.63
2023-08-07T03:54:35.692Z,85566.53
2023-08-07T03:57:02.729Z,85586.53
2023-08-07T03:59:29.698Z,85555.28
2023-08-07T04:01:56.702Z,85575.75
2023-08-07T04:04:23.792Z,85580.28
2023-08-07T04:06:51.383Z,85574.72
2023-08-07T04:09:18.427Z,85579.06
2023-08-07T04:11:45.478Z,85555.25
2023-08-07T04:14:12.753Z,85549.28
2023-08-07T04:16:40.042Z,85529.81
2023-08-07T04:19:08.645Z,85547.84
2023-08-07T04:21:35.686Z,85547.91
2023-08-07T04:24:09.135Z,85579.06
2023-08-07T04:26:36.135Z,85585.44
2023-08-07T04:29:03.554Z,85569.72
2023-08-07T04:31:32.595Z,85588.00
2023-08-07T04:33:59.857Z,85589.31
2023-08-07T04:36:26.900Z,85576.28
2023-08-07T04:38:54.061Z,85596.09
2023-08-07T04:41:21.058Z,85596.69
2023-08-07T04:43:49.380Z,85593.75
2023-08-07T04:46:16.527Z,85564.06
2023-08-07T04:48:43.608Z,85589.59
2023-08-07T04:51:10.654Z,85591.78
2023-08-07T04:53:37.878Z,85586.72
2023-08-07T04:56:05.196Z,85581.91
2023-08-07T04:58:32.280Z,85582.66
2023-08-07T05:01:00.139Z,85597.28
2023-08-07T05:03:28.387Z,85550.88
2023-08-07T05:06:02.837Z,85591.53
2023-08-07T05:08:30.069Z,85565.56
2023-08-07T05:10:57.410Z,85545.38
2023-08-07T05:13:24.525Z,85556.63
2023-08-07T05:15:51.666Z,85576.75
2023-08-07T05:18:19.191Z,85577.34
2023-08-07T05:20:46.282Z,85595.88
2023-08-07T05:23:13.337Z,85587.47
2023-08-07T05:25:40.457Z,85581.19
2023-08-07T05:28:07.611Z,85565.69
2023-08-07T05:30:34.734Z,85602.88
2023-08-07T05:33:01.982Z,85567.47
2023-08-07T05:35:30.547Z,85569.97
2023-08-07T05:37:57.636Z,85602.34
2023-08-07T05:40:24.751Z,85535.00
2023-08-07T05:42:51.835Z,85601.09
2023-08-07T05:45:18.956Z,85510.06
2023-08-07T05:47:46.181Z,85467.31
2023-08-07T05:50:13.453Z,85559.00
2023-08-07T05:52:40.630Z,85612.72
2023-08-07T05:55:09.321Z,85551.41
2023-08-07T05:57:36.659Z,85566.66
2023-08-07T06:00:04.738Z,85557.19
2023-08-07T06:02:39.384Z,85565.16
2023-08-07T06:05:07.138Z,85582.56
2023-08-07T06:07:34.391Z,85588.66
2023-08-07T06:10:01.688Z,85583.53
2023-08-07T06:12:28.903Z,85594.19
2023-08-07T06:14:56.172Z,85542.22
2023-08-07T06:17:23.254Z,85584.31
2023-08-07T06:19:50.472Z,85610.78
2023-08-07T06:22:20.648Z,85580.16
2023-08-07T06:24:47.883Z,85587.78
2023-08-07T06:27:15.201Z,85584.78
2023-08-07T06:29:42.363Z,85560.28
2023-08-07T06:32:11.995Z,85598.22
2023-08-07T06:34:39.354Z,85592.59
2023-08-07T06:37:10.987Z,85614.75
2023-08-07T06:39:38.085Z,85615.69
2023-08-07T06:42:05.517Z,85571.28
2023-08-07T06:44:36.037Z,85624.66
2023-08-07T06:47:03.197Z,85626.78
2023-08-07T06:49:32.956Z,85574.72
2023-08-07T06:52:00.193Z,85628.63
2023-08-07T06:54:27.418Z,85616.56
2023-08-07T06:56:54.426Z,85611.50
2023-08-07T06:59:21.652Z,85604.94
2023-08-07T07:01:49.440Z,85566.19
2023-08-07T07:04:16.773Z,85586.03
2023-08-07T07:06:43.948Z,85633.13
2023-08-07T07:09:11.203Z,85612.63
2023-08-07T07:11:39.224Z,85614.84
2023-08-07T07:14:06.350Z,85570.53
2023-08-07T07:16:33.739Z,85619.69
2023-08-07T07:19:03.399Z,85610.91
2023-08-07T07:21:30.571Z,85600.41
2023-08-07T07:23:57.594Z,85626.13
2023-08-07T07:26:24.666Z,85629.72
2023-08-07T07:28:52.648Z,85581.59
2023-08-07T07:31:20.130Z,85602.56
2023-08-07T07:33:48.327Z,85623.47
2023-08-07T07:36:17.822Z,85578.38
2023-08-07T07:38:47.835Z,85633.78
2023-08-07T07:41:18.707Z,85614.44
2023-08-07T07:43:45.868Z,85600.56
2023-08-07T07:46:12.972Z,85631.34
2023-08-07T07:48:40.099Z,85575.78
2023-08-07T07:51:07.410Z,85575.13
2023-08-07T07:53:34.473Z,85629.53
2023-08-07T07:56:01.931Z,85592.66
2023-08-07T07:58:29.030Z,85585.03
2023-08-07T08:00:56.300Z,85635.63
2023-08-07T08:03:25.508Z,85642.66
2023-08-07T08:05:53.585Z,85637.66
2023-08-07T08:08:20.932Z,85636.59
2023-08-07T08:10:49.099Z,85584.00
2023-08-07T08:13:17.211Z,85582.69
2023-08-07T08:15:45.463Z,85603.56
2023-08-07T08:18:13.403Z,85646.16
2023-08-07T08:20:40.795Z,85621.66
2023-08-07T08:23:08.113Z,85625.00
2023-08-07T08:25:35.395Z,85645.09
2023-08-07T08:28:02.606Z,85608.16
2023-08-07T08:30:30.304Z,85607.75
2023-08-07T08:32:57.848Z,85644.03
2023-08-07T08:35:25.291Z,85639.06
2023-08-07T08:37:52.463Z,85629.19
2023-08-07T08:40:20.643Z,85620.03
2023-08-07T08:42:48.203Z,85572.69
2023-08-07T08:45:16.526Z,85580.78
2023-08-07T08:47:47.676Z,85634.03
2023-08-07T08:50:16.120Z,85592.00
2023-08-07T08:52:45.921Z,85635.66
2023-08-07T08:55:14.560Z,85647.50
2023-08-07T08:57:43.093Z,85637.25
2023-08-07T09:00:22.552Z,85638.97
2023-08-07T09:02:51.026Z,85494.97
2023-08-07T09:05:20.996Z,85646.09
2023-08-07T09:07:51.793Z,85645.84
2023-08-07T09:10:25.402Z,85628.00
2023-08-07T09:13:02.468Z,85643.19
2023-08-07T09:15:31.782Z,85636.41
2023-08-07T09:17:59.928Z,85618.97
2023-08-07T09:20:27.457Z,85603.06
2023-08-07T09:22:54.653Z,85637.00
2023-08-07T09:25:32.802Z,85638.63
2023-08-07T09:28:05.984Z,85636.53
2023-08-07T09:30:35.616Z,85650.75
2023-08-07T09:33:03.680Z,85645.00
2023-08-07T09:35:33.372Z,85583.00
2023-08-07T09:38:00.608Z,85613.25
2023-08-07T09:40:28.224Z,85596.97
2023-08-07T09:42:55.845Z,85655.13
2023-08-07T09:45:24.652Z,85598.78
2023-08-07T09:48:02.469Z,85643.81
2023-08-07T09:50:30.816Z,85614.72
2023-08-07T09:52:59.450Z,85613.00
2023-08-07T09:55:27.446Z,85493.13
2023-08-07T09:57:55.343Z,85577.56
2023-08-07T10:00:22.868Z,85641.03
2023-08-07T10:02:53.002Z,85619.88
2023-08-07T10:05:20.447Z,85634.22
2023-08-07T10:07:48.648Z,85636.03
2023-08-07T10:10:15.972Z,85583.69
2023-08-07T10:12:43.309Z,85609.53
2023-08-07T10:15:10.991Z,85612.00
2023-08-07T10:17:38.201Z,85581.47
2023-08-07T10:20:06.304Z,85635.38
2023-08-07T10:22:35.053Z,85632.06
2023-08-07T10:25:04.195Z,85628.25
2023-08-07T10:27:36.530Z,85610.53
2023-08-07T10:30:07.764Z,85579.22
2023-08-07T10:32:36.030Z,85633.41
2023-08-07T10:35:07.157Z,85592.88
2023-08-07T10:37:46.092Z,85635.41
2023-08-07T10:40:14.374Z,85575.28
2023-08-07T10:43:21.064Z,85625.97
2023-08-07T10:45:48.130Z,85630.38
2023-08-07T10:48:19.562Z,85634.72
2023-08-07T10:50:58.715Z,85596.53
2023-08-07T10:53:32.966Z,85619.78
2023-08-07T10:56:04.026Z,85632.53
2023-08-07T10:58:33.693Z,85557.88
2023-08-07T11:01:28.655Z,85623.72
2023-08-07T11:04:01.835Z,85625.59
2023-08-07T11:06:32.847Z,85564.16
2023-08-07T11:09:10.866Z,85600.69
2023-08-07T11:11:42.050Z,85625.59
2023-08-07T11:14:19.898Z,85608.44
2023-08-07T11:16:48.540Z,85597.72
2023-08-07T11:19:17.339Z,85629.59
2023-08-07T11:21:44.913Z,85622.06
2023-08-07T11:24:17.393Z,85598.97
2023-08-07T11:26:46.090Z,85566.75
2023-08-07T11:29:17.882Z,85600.00
2023-08-07T11:31:45.010Z,85611.75
2023-08-07T11:34:12.573Z,85619.94
2023-08-07T11:36:44.039Z,85597.66
2023-08-07T11:39:11.880Z,85598.03
2023-08-07T11:41:39.033Z,85618.28
2023-08-07T11:44:08.791Z,85608.69
2023-08-07T11:46:36.821Z,85583.56
2023-08-07T11:49:05.464Z,85628.59
2023-08-07T11:51:33.407Z,85614.88
2023-08-07T11:54:00.844Z,85579.56
2023-08-07T11:56:29.237Z,85613.53
2023-08-07T11:58:56.412Z,85628.97
2023-08-07T12:01:25.603Z,85569.19
2023-08-07T12:03:57.918Z,85513.81
2023-08-07T12:06:26.436Z,85531.69
2023-08-07T12:08:57.873Z,85619.91
2023-08-07T12:11:25.932Z,85604.66
2023-08-07T12:13:53.315Z,85595.75
2023-08-07T12:16:20.698Z,85615.56
2023-08-07T12:18:49.603Z,85611.00
2023-08-07T12:21:22.278Z,85596.06
2023-08-07T12:23:49.351Z,85585.72
2023-08-07T12:26:17.010Z,85598.94
2023-08-07T12:28:44.488Z,85626.06
2023-08-07T12:31:11.797Z,85620.50
2023-08-07T12:33:39.063Z,85588.47
2023-08-07T12:36:20.224Z,85617.72
2023-08-07T12:38:48.062Z,85616.69
2023-08-07T12:43:45.987Z,85612.19
2023-08-07T12:48:45.551Z,85606.84
2023-08-07T12:51:12.697Z,85567.88
2023-08-07T12:53:39.919Z,85609.81
2023-08-07T12:56:07.220Z,85616.22
2023-08-07T12:58:35.229Z,85609.38
2023-08-07T13:01:02.549Z,85615.09
2023-08-07T13:03:29.841Z,85607.19
2023-08-07T13:05:57.082Z,85596.94
2023-08-07T13:08:32.232Z,85618.59
2023-08-07T13:10:59.253Z,85614.88
2023-08-07T13:13:29.301Z,85609.09
2023-08-07T13:15:56.333Z,85619.88
2023-08-07T13:18:27.026Z,85529.94
2023-08-07T13:20:54.083Z,85550.47
2023-08-07T13:23:21.222Z,85583.03
2023-08-07T13:25:48.341Z,85615.22
2023-08-07T13:28:15.660Z,85616.03
2023-08-07T13:30:43.029Z,85622.75
2023-08-07T13:33:10.126Z,85595.09
2023-08-07T13:35:37.321Z,85599.44
2023-08-07T13:38:09.225Z,85609.19
2023-08-07T13:40:36.588Z,85624.63
2023-08-07T13:43:09.126Z,85625.63
2023-08-07T13:45:37.224Z,85613.13
2023-08-07T13:48:05.470Z,85610.84
2023-08-07T13:50:32.855Z,85556.84
2023-08-07T13:53:12.936Z,85626.59
2023-08-07T13:55:42.588Z,85622.91
2023-08-07T13:58:11.227Z,85617.53
2023-08-07T14:00:38.445Z,85628.84
2023-08-07T14:03:05.791Z,85630.38
2023-08-07T14:05:33.036Z,85585.88
2023-08-07T14:08:00.255Z,85625.19
2023-08-07T14:10:27.392Z,85597.13
2023-08-07T14:12:54.574Z,85629.66
2023-08-07T14:15:21.831Z,85617.84
2023-08-07T14:17:49.034Z,85617.03
2023-08-07T14:20:16.624Z,85608.69
2023-08-07T14:22:44.457Z,85627.16
2023-08-07T14:25:11.689Z,85624.69
2023-08-07T14:27:38.814Z,85633.06
2023-08-07T14:30:06.605Z,85634.13
2023-08-07T14:32:33.794Z,85593.06
2023-08-07T14:35:01.144Z,85622.09
2023-08-07T14:37:28.268Z,85627.75
2023-08-07T14:39:55.176Z,85626.44
2023-08-07T14:42:22.494Z,85626.59
2023-08-07T14:44:49.576Z,85629.91
2023-08-07T14:47:16.756Z,85585.72
2023-08-07T14:49:44.001Z,85625.44
2023-08-07T14:52:11.195Z,85617.28
2023-08-07T14:54:38.397Z,85587.06
2023-08-07T14:57:05.829Z,85600.75
2023-08-07T14:59:36.091Z,85603.59
2023-08-07T15:02:03.572Z,85618.00
2023-08-07T15:04:30.779Z,85615.28
2023-08-07T15:06:57.923Z,85616.25
2023-08-07T15:09:25.644Z,85604.38
2023-08-07T15:11:52.947Z,85560.59
2023-08-07T15:14:20.023Z,85570.69
2023-08-07T15:16:47.109Z,85575.69
2023-08-07T15:19:14.313Z,85605.19
2023-08-07T15:21:41.471Z,85588.34
2023-08-07T15:24:08.688Z,85605.81
2023-08-07T15:26:36.069Z,85569.38
2023-08-07T15:29:06.025Z,85586.22
2023-08-07T15:31:33.644Z,85612.75
2023-08-07T15:34:01.103Z,85584.50
2023-08-07T15:36:28.163Z,85598.66
2023-08-07T15:38:55.249Z,85612.81
2023-08-07T15:41:22.756Z,85616.16
2023-08-07T15:43:52.984Z,85601.63
2023-08-07T15:46:20.194Z,85616.13
2023-08-07T15:48:47.594Z,85613.84
2023-08-07T15:51:14.851Z,85614.31
2023-08-07T15:53:41.956Z,85621.22
2023-08-07T15:56:09.222Z,85612.97
2023-08-07T15:58:37.757Z,85617.09
2023-08-07T16:01:04.994Z,85606.75
2023-08-07T16:03:32.425Z,85609.66
2023-08-07T16:06:00.045Z,85625.06
2023-08-07T16:08:27.251Z,85626.50
2023-08-07T16:10:54.623Z,85623.78
2023-08-07T16:13:24.051Z,85603.13
2023-08-07T16:15:54.290Z,85635.03
2023-08-07T16:18:21.500Z,85631.56
2023-08-07T16:20:48.574Z,85586.88
2023-08-07T16:23:15.727Z,85580.03
2023-08-07T16:25:42.864Z,85636.38
2023-08-07T16:28:10.116Z,85640.31
2023-08-07T16:30:37.404Z,85624.03
2023-08-07T16:33:04.882Z,85641.94
2023-08-07T16:35:32.022Z,85618.91
2023-08-07T16:37:59.207Z,85635.66
2023-08-07T16:40:26.340Z,85605.06
2023-08-07T16:42:53.381Z,85599.94
2023-08-07T16:45:22.792Z,85656.31
2023-08-07T16:47:49.900Z,85655.91
2023-08-07T16:50:17.311Z,85628.38
2023-08-07T16:52:44.465Z,85666.00
2023-08-07T16:55:11.648Z,85657.50
2023-08-07T16:57:38.768Z,85669.81
2023-08-07T17:00:07.556Z,85668.16
2023-08-07T17:02:34.792Z,85606.50
2023-08-07T17:05:02.073Z,85647.66
2023-08-07T17:07:29.174Z,85611.09
2023-08-07T17:09:56.489Z,85662.09
2023-08-07T17:12:23.687Z,85654.66
2023-08-07T17:14:50.914Z,85653.72
2023-08-07T17:17:17.998Z,85672.88
2023-08-07T17:19:45.044Z,85648.97
2023-08-07T17:22:12.471Z,85690.38
2023-08-07T17:24:39.718Z,85688.72
2023-08-07T17:27:07.086Z,85682.63
2023-08-07T17:29:34.223Z,85667.91
2023-08-07T17:32:01.399Z,85635.38
2023-08-07T17:34:28.550Z,85693.84
2023-08-07T17:36:55.683Z,85643.44
2023-08-07T17:39:23.057Z,85699.50
2023-08-07T17:41:50.432Z,85696.78
2023-08-07T17:44:18.404Z,85675.25
2023-08-07T17:46:45.708Z,85687.31
2023-08-07T17:49:14.053Z,85719.03
2023-08-07T17:51:41.302Z,85722.00
2023-08-07T17:54:08.576Z,85715.78
2023-08-07T17:56:37.319Z,85734.53
2023-08-07T17:59:04.614Z,85712.09
2023-08-07T18:01:31.977Z,85744.88
2023-08-07T18:04:02.294Z,85732.56
2023-08-07T18:06:30.277Z,85749.59
2023-08-07T18:08:58.293Z,85753.88
2023-08-07T18:11:25.356Z,85765.66
2023-08-07T18:13:52.661Z,85763.22
2023-08-07T18:16:20.065Z,85754.97
2023-08-07T18:18:47.268Z,85713.22
2023-08-07T18:21:14.349Z,85728.25
2023-08-07T18:23:41.699Z,85726.34
2023-08-07T18:26:08.927Z,85744.41
2023-08-07T18:28:36.171Z,85749.19
2023-08-07T18:31:03.731Z,85708.34
2023-08-07T18:33:30.914Z,85733.31
2023-08-07T18:36:01.161Z,85720.06
2023-08-07T18:38:28.916Z,85747.56
2023-08-07T18:40:56.052Z,85744.28
2023-08-07T18:43:23.213Z,85750.69
2023-08-07T18:45:50.365Z,85735.47
2023-08-07T18:48:18.088Z,85740.50
2023-08-07T18:50:45.420Z,85759.44
2023-08-07T18:53:12.671Z,85757.13
2023-08-07T18:55:39.722Z,85758.16
2023-08-07T18:58:07.065Z,85737.00
2023-08-07T19:00:34.246Z,85750.94
2023-08-07T19:03:01.560Z,85753.22
2023-08-07T19:05:28.765Z,85729.22
2023-08-07T19:07:56.025Z,85768.69
2023-08-07T19:10:23.482Z,85769.25
2023-08-07T19:12:51.262Z,85761.91
2023-08-07T19:15:18.509Z,85769.59
2023-08-07T19:17:45.822Z,85775.44
2023-08-07T19:20:13.325Z,85765.06
2023-08-07T19:22:40.888Z,85755.94
2023-08-07T19:25:08.762Z,85755.81
2023-08-07T19:27:35.911Z,85709.25
2023-08-07T19:30:03.069Z,85732.81
2023-08-07T19:32:30.307Z,85754.47
2023-08-07T19:34:57.582Z,85764.19
2023-08-07T19:39:52.765Z,85762.03
2023-08-07T19:42:19.856Z,85758.97
2023-08-07T19:44:47.860Z,85739.78
2023-08-07T19:47:25.893Z,85734.41
2023-08-07T19:50:03.358Z,85758.84
2023-08-07T19:52:30.509Z,85752.13
2023-08-07T19:54:57.567Z,85758.25
2023-08-07T19:57:25.912Z,85762.31
2023-08-07T19:59:52.961Z,85760.72
2023-08-07T20:02:20.077Z,85724.94
2023-08-07T20:04:48.501Z,85754.41
2023-08-07T20:07:15.621Z,85770.19
2023-08-07T20:09:43.129Z,85748.19
2023-08-07T20:12:10.820Z,85770.50
2023-08-07T20:14:38.149Z,85747.81
2023-08-07T20:17:06.238Z,85765.66
2023-08-07T20:19:34.110Z,85779.31
2023-08-07T20:22:02.082Z,85775.59
2023-08-07T20:24:29.779Z,85778.81
2023-08-07T20:26:58.336Z,85754.28
2023-08-07T20:29:26.231Z,85777.44
2023-08-07T20:31:53.644Z,85742.41
2023-08-07T20:34:20.992Z,85738.34
2023-08-07T20:36:48.400Z,85772.13
2023-08-07T20:39:15.549Z,85768.16
2023-08-07T20:41:42.619Z,85748.94
2023-08-07T20:44:09.763Z,85759.22
2023-08-07T20:46:36.917Z,85778.28
2023-08-07T20:49:04.177Z,85771.03
2023-08-07T20:51:33.196Z,85774.22
2023-08-07T20:54:00.519Z,85748.03
2023-08-07T20:56:27.720Z,85764.84
2023-08-07T20:58:54.841Z,85777.34
2023-08-07T21:01:22.018Z,85767.88
2023-08-07T21:03:49.157Z,85774.69
2023-08-07T21:06:16.134Z,85744.44
2023-08-07T21:08:43.256Z,85697.63
2023-08-07T21:11:10.229Z,85749.59
2023-08-07T21:13:39.210Z,85754.88
2023-08-07T21:16:06.754Z,85753.69
2023-08-07T21:18:33.912Z,85758.16
2023-08-07T21:21:01.277Z,85745.75
2023-08-07T21:23:28.646Z,85782.47
2023-08-07T21:25:55.725Z,85736.97
2023-08-07T21:28:22.938Z,85775.03
2023-08-07T21:30:50.953Z,85787.22
2023-08-07T21:33:18.004Z,85781.81
2023-08-07T21:35:45.134Z,85780.34
2023-08-07T21:38:12.292Z,85724.28
2023-08-07T21:40:40.082Z,85753.84
2023-08-07T21:43:07.334Z,85752.09
2023-08-07T21:45:34.694Z,85776.34
2023-08-07T21:48:01.869Z,85778.38
2023-08-07T21:50:28.946Z,85734.84
2023-08-07T21:52:56.001Z,85765.09
2023-08-07T21:55:23.061Z,85769.28
2023-08-07T21:57:50.258Z,85719.03
2023-08-07T22:00:17.499Z,85721.78
2023-08-07T22:02:47.641Z,85728.94
2023-08-07T22:05:14.928Z,85737.63
2023-08-07T22:07:42.072Z,85721.38
2023-08-07T22:10:10.071Z,85728.63
2023-08-07T22:12:37.344Z,85751.78
2023-08-07T22:15:05.322Z,85766.25
2023-08-07T22:17:32.578Z,85744.56
2023-08-07T22:20:05.573Z,85723.09
2023-08-07T22:22:33.581Z,85724.38
2023-08-07T22:25:00.579Z,85766.59
2023-08-07T22:27:27.705Z,85750.09
2023-08-07T22:29:54.801Z,85786.47
2023-08-07T22:32:21.975Z,85774.91
2023-08-07T22:34:49.055Z,85791.28
2023-08-07T22:37:16.097Z,85780.69
2023-08-07T22:39:43.198Z,85759.50
2023-08-07T22:42:10.429Z,85789.72
2023-08-07T22:44:37.544Z,85797.75
2023-08-07T22:47:04.885Z,85791.91
2023-08-07T22:49:31.975Z,85774.34
2023-08-07T22:51:59.297Z,85772.09
2023-08-07T22:54:26.768Z,85807.59
2023-08-07T22:56:53.802Z,85797.75
2023-08-07T22:59:23.543Z,85786.72
2023-08-07T23:01:50.718Z,85805.06
2023-08-07T23:04:17.905Z,85793.63
2023-08-07T23:06:45.191Z,85800.66
2023-08-07T23:09:12.463Z,85806.75
2023-08-07T23:11:40.217Z,85776.63
2023-08-07T23:14:07.325Z,85766.69
2023-08-07T23:16:34.360Z,85797.06
2023-08-07T23:19:01.384Z,85786.63
2023-08-07T23:21:28.635Z,85783.47
2023-08-07T23:23:56.056Z,85794.63
2023-08-07T23:26:23.249Z,85774.81
2023-08-07T23:28:50.410Z,85783.47
2023-08-07T23:31:17.596Z,85791.28
2023-08-07T23:33:44.726Z,85765.91
2023-08-07T23:36:11.940Z,85784.34
2023-08-07T23:38:39.102Z,85766.28
2023-08-07T23:41:06.363Z,85792.44
2023-08-07T23:43:34.462Z,85765.53
2023-08-07T23:46:02.940Z,85773.34
2023-08-07T23:48:30.064Z,85774.44
2023-08-07T23:50:57.270Z,85786.94
2023-08-07T23:53:24.639Z,85770.88
2023-08-07T23:55:51.889Z,85783.72
2023-08-07T23:58:20.413Z,85785.09
